sensor_id;sensor_type;location;lat;lon;timestamp;P1;durP1;ratioP1;P2;durP2;ratioP2
16593;SDS011;8410;52.532;13.336;2022-12-07T00:00:44;12.83;;;9.90;;
16593;SDS011;8410;52.532;13.336;2022-12-07T00:10:18;12.20;;;9.60;;
16593;SDS011;8410;52.532;13.336;2022-12-07T00:16:13;10.83;;;9.63;;
16593;SDS011;8410;52.532;13.336;2022-12-07T00:18:43;11.53;;;10.33;;
16593;SDS011;8410;52.532;13.336;2022-12-07T00:21:13;11.13;;;10.03;;
16593;SDS011;8410;52.532;13.336;2022-12-07T00:23:41;11.63;;;10.43;;
16593;SDS011;8410;52.532;13.336;2022-12-07T00:26:10;10.13;;;9.13;;
16593;SDS011;8410;52.532;13.336;2022-12-07T00:28:39;11.27;;;10.17;;
16593;SDS011;8410;52.532;13.336;2022-12-07T00:31:08;12.27;;;10.17;;
16593;SDS011;8410;52.532;13.336;2022-12-07T00:33:38;11.23;;;10.03;;
16593;SDS011;8410;52.532;13.336;2022-12-07T00:36:07;11.57;;;10.37;;
16593;SDS011;8410;52.532;13.336;2022-12-07T00:38:36;12.73;;;11.43;;
16593;SDS011;8410;52.532;13.336;2022-12-07T00:41:05;11.87;;;10.50;;
16593;SDS011;8410;52.532;13.336;2022-12-07T00:43:36;10.63;;;9.63;;
16593;SDS011;8410;52.532;13.336;2022-12-07T00:46:03;11.73;;;10.47;;
16593;SDS011;8410;52.532;13.336;2022-12-07T00:48:31;11.43;;;10.33;;
16593;SDS011;8410;52.532;13.336;2022-12-07T00:51:00;12.40;;;10.70;;
16593;SDS011;8410;52.532;13.336;2022-12-07T00:53:28;11.30;;;10.10;;
16593;SDS011;8410;52.532;13.336;2022-12-07T00:56:04;10.17;;;9.20;;
16593;SDS011;8410;52.532;13.336;2022-12-07T00:58:32;10.20;;;9.20;;
16593;SDS011;8410;52.532;13.336;2022-12-07T01:00:59;9.10;;;8.23;;
16593;SDS011;8410;52.532;13.336;2022-12-07T01:03:28;9.97;;;8.97;;
16593;SDS011;8410;52.532;13.336;2022-12-07T01:05:56;10.03;;;9.00;;
16593;SDS011;8410;52.532;13.336;2022-12-07T01:08:26;10.40;;;9.43;;
16593;SDS011;8410;52.532;13.336;2022-12-07T01:10:58;10.70;;;9.60;;
16593;SDS011;8410;52.532;13.336;2022-12-07T01:13:26;10.90;;;9.80;;
16593;SDS011;8410;52.532;13.336;2022-12-07T01:15:56;10.67;;;9.67;;
16593;SDS011;8410;52.532;13.336;2022-12-07T01:18:26;9.50;;;8.43;;
16593;SDS011;8410;52.532;13.336;2022-12-07T01:20:57;9.57;;;8.67;;
16593;SDS011;8410;52.532;13.336;2022-12-07T01:23:26;10.13;;;9.13;;
16593;SDS011;8410;52.532;13.336;2022-12-07T01:25:55;9.43;;;8.53;;
16593;SDS011;8410;52.532;13.336;2022-12-07T01:28:23;10.50;;;9.40;;
16593;SDS011;8410;52.532;13.336;2022-12-07T01:31:01;9.70;;;8.80;;
16593;SDS011;8410;52.532;13.336;2022-12-07T01:33:30;9.10;;;8.20;;
16593;SDS011;8410;52.532;13.336;2022-12-07T01:36:02;8.83;;;8.03;;
16593;SDS011;8410;52.532;13.336;2022-12-07T01:38:32;8.70;;;7.87;;
16593;SDS011;8410;52.532;13.336;2022-12-07T01:41:00;9.83;;;8.17;;
16593;SDS011;8410;52.532;13.336;2022-12-07T01:43:29;8.70;;;7.90;;
16593;SDS011;8410;52.532;13.336;2022-12-07T01:45:58;8.30;;;7.07;;
16593;SDS011;8410;52.532;13.336;2022-12-07T01:48:27;7.77;;;6.73;;
16593;SDS011;8410;52.532;13.336;2022-12-07T01:50:59;7.27;;;6.53;;
16593;SDS011;8410;52.532;13.336;2022-12-07T01:53:31;6.90;;;6.27;;
16593;SDS011;8410;52.532;13.336;2022-12-07T01:56:03;7.80;;;7.10;;
16593;SDS011;8410;52.532;13.336;2022-12-07T01:58:32;7.03;;;6.40;;
16593;SDS011;8410;52.532;13.336;2022-12-07T02:01:00;7.60;;;6.67;;
16593;SDS011;8410;52.532;13.336;2022-12-07T02:03:29;6.80;;;6.13;;
16593;SDS011;8410;52.532;13.336;2022-12-07T02:06:01;7.47;;;6.77;;
16593;SDS011;8410;52.532;13.336;2022-12-07T02:08:29;7.07;;;6.37;;
16593;SDS011;8410;52.532;13.336;2022-12-07T02:10:58;7.43;;;6.73;;
16593;SDS011;8410;52.532;13.336;2022-12-07T02:13:27;7.03;;;6.43;;
16593;SDS011;8410;52.532;13.336;2022-12-07T02:16:04;9.00;;;6.80;;
16593;SDS011;8410;52.532;13.336;2022-12-07T02:18:42;6.67;;;5.97;;
16593;SDS011;8410;52.532;13.336;2022-12-07T02:24:34;6.77;;;6.17;;
16593;SDS011;8410;52.532;13.336;2022-12-07T02:27:25;5.93;;;5.33;;
16593;SDS011;8410;52.532;13.336;2022-12-07T02:30:04;6.30;;;5.70;;
16593;SDS011;8410;52.532;13.336;2022-12-07T02:32:38;7.67;;;6.97;;
16593;SDS011;8410;52.532;13.336;2022-12-07T02:35:11;7.67;;;6.87;;
16593;SDS011;8410;52.532;13.336;2022-12-07T02:37:47;8.33;;;7.30;;
16593;SDS011;8410;52.532;13.336;2022-12-07T02:40:22;7.40;;;6.70;;
16593;SDS011;8410;52.532;13.336;2022-12-07T02:42:57;7.70;;;6.90;;
16593;SDS011;8410;52.532;13.336;2022-12-07T02:45:30;8.20;;;7.40;;
16593;SDS011;8410;52.532;13.336;2022-12-07T02:47:59;8.73;;;7.80;;
16593;SDS011;8410;52.532;13.336;2022-12-07T02:50:28;7.93;;;7.10;;
16593;SDS011;8410;52.532;13.336;2022-12-07T02:52:56;7.13;;;6.43;;
16593;SDS011;8410;52.532;13.336;2022-12-07T02:55:25;7.87;;;7.07;;
16593;SDS011;8410;52.532;13.336;2022-12-07T02:58:03;9.83;;;7.67;;
16593;SDS011;8410;52.532;13.336;2022-12-07T03:00:42;9.23;;;8.33;;
16593;SDS011;8410;52.532;13.336;2022-12-07T03:03:19;9.07;;;8.17;;
16593;SDS011;8410;52.532;13.336;2022-12-07T03:05:55;8.30;;;7.17;;
16593;SDS011;8410;52.532;13.336;2022-12-07T03:08:33;8.57;;;7.67;;
16593;SDS011;8410;52.532;13.336;2022-12-07T03:11:08;10.43;;;9.27;;
16593;SDS011;8410;52.532;13.336;2022-12-07T03:13:45;9.90;;;8.90;;
16593;SDS011;8410;52.532;13.336;2022-12-07T03:16:19;10.33;;;8.70;;
16593;SDS011;8410;52.532;13.336;2022-12-07T03:18:50;11.23;;;9.83;;
16593;SDS011;8410;52.532;13.336;2022-12-07T03:21:20;12.27;;;10.70;;
16593;SDS011;8410;52.532;13.336;2022-12-07T03:23:51;10.73;;;9.63;;
16593;SDS011;8410;52.532;13.336;2022-12-07T03:26:24;12.37;;;10.40;;
16593;SDS011;8410;52.532;13.336;2022-12-07T03:28:58;11.57;;;10.33;;
16593;SDS011;8410;52.532;13.336;2022-12-07T03:31:32;12.13;;;10.67;;
16593;SDS011;8410;52.532;13.336;2022-12-07T03:34:05;13.27;;;11.87;;
16593;SDS011;8410;52.532;13.336;2022-12-07T03:36:38;14.77;;;12.80;;
16593;SDS011;8410;52.532;13.336;2022-12-07T03:39:13;13.03;;;11.73;;
16593;SDS011;8410;52.532;13.336;2022-12-07T03:41:48;14.37;;;11.47;;
16593;SDS011;8410;52.532;13.336;2022-12-07T03:44:17;11.47;;;8.93;;
16593;SDS011;8410;52.532;13.336;2022-12-07T03:46:48;12.97;;;11.67;;
16593;SDS011;8410;52.532;13.336;2022-12-07T03:49:27;13.53;;;11.50;;
16593;SDS011;8410;52.532;13.336;2022-12-07T03:52:00;13.93;;;11.77;;
16593;SDS011;8410;52.532;13.336;2022-12-07T03:54:36;13.33;;;11.00;;
16593;SDS011;8410;52.532;13.336;2022-12-07T03:57:08;13.27;;;11.40;;
16593;SDS011;8410;52.532;13.336;2022-12-07T03:59:38;16.17;;;13.23;;
16593;SDS011;8410;52.532;13.336;2022-12-07T04:02:08;15.40;;;12.20;;
16593;SDS011;8410;52.532;13.336;2022-12-07T04:04:40;17.07;;;14.47;;
16593;SDS011;8410;52.532;13.336;2022-12-07T04:07:09;16.30;;;13.60;;
16593;SDS011;8410;52.532;13.336;2022-12-07T04:09:38;15.57;;;13.50;;
16593;SDS011;8410;52.532;13.336;2022-12-07T04:12:06;15.27;;;13.40;;
16593;SDS011;8410;52.532;13.336;2022-12-07T04:14:34;18.40;;;13.27;;
16593;SDS011;8410;52.532;13.336;2022-12-07T04:17:01;14.73;;;12.83;;
16593;SDS011;8410;52.532;13.336;2022-12-07T04:19:31;15.57;;;13.20;;
16593;SDS011;8410;52.532;13.336;2022-12-07T04:22:01;16.07;;;14.37;;
16593;SDS011;8410;52.532;13.336;2022-12-07T04:24:30;20.37;;;15.80;;
16593;SDS011;8410;52.532;13.336;2022-12-07T04:26:58;22.13;;;15.40;;
16593;SDS011;8410;52.532;13.336;2022-12-07T04:29:26;16.73;;;14.37;;
16593;SDS011;8410;52.532;13.336;2022-12-07T04:31:54;18.37;;;14.90;;
16593;SDS011;8410;52.532;13.336;2022-12-07T04:34:22;18.43;;;15.57;;
16593;SDS011;8410;52.532;13.336;2022-12-07T04:36:50;19.00;;;15.70;;
16593;SDS011;8410;52.532;13.336;2022-12-07T04:39:19;20.37;;;16.40;;
16593;SDS011;8410;52.532;13.336;2022-12-07T04:41:48;20.43;;;15.87;;
16593;SDS011;8410;52.532;13.336;2022-12-07T04:44:16;20.13;;;16.63;;
16593;SDS011;8410;52.532;13.336;2022-12-07T04:46:44;21.77;;;18.10;;
16593;SDS011;8410;52.532;13.336;2022-12-07T04:49:13;18.77;;;14.97;;
16593;SDS011;8410;52.532;13.336;2022-12-07T04:51:41;21.03;;;16.90;;
16593;SDS011;8410;52.532;13.336;2022-12-07T04:54:11;26.57;;;19.00;;
16593;SDS011;8410;52.532;13.336;2022-12-07T04:56:39;21.50;;;17.60;;
16593;SDS011;8410;52.532;13.336;2022-12-07T04:59:06;20.50;;;18.27;;
16593;SDS011;8410;52.532;13.336;2022-12-07T05:01:34;21.70;;;18.63;;
16593;SDS011;8410;52.532;13.336;2022-12-07T05:04:02;21.50;;;18.10;;
16593;SDS011;8410;52.532;13.336;2022-12-07T05:06:30;23.73;;;19.47;;
16593;SDS011;8410;52.532;13.336;2022-12-07T05:08:57;23.33;;;20.20;;
16593;SDS011;8410;52.532;13.336;2022-12-07T05:11:26;21.10;;;18.37;;
16593;SDS011;8410;52.532;13.336;2022-12-07T05:14:08;22.07;;;18.70;;
16593;SDS011;8410;52.532;13.336;2022-12-07T05:16:38;23.87;;;19.67;;
16593;SDS011;8410;52.532;13.336;2022-12-07T05:19:06;25.03;;;20.83;;
16593;SDS011;8410;52.532;13.336;2022-12-07T05:21:35;22.93;;;18.87;;
16593;SDS011;8410;52.532;13.336;2022-12-07T05:24:03;27.43;;;22.63;;
16593;SDS011;8410;52.532;13.336;2022-12-07T05:26:32;26.73;;;21.60;;
16593;SDS011;8410;52.532;13.336;2022-12-07T05:29:00;27.20;;;21.67;;
16593;SDS011;8410;52.532;13.336;2022-12-07T05:31:27;26.13;;;22.30;;
16593;SDS011;8410;52.532;13.336;2022-12-07T05:33:55;27.53;;;21.87;;
16593;SDS011;8410;52.532;13.336;2022-12-07T05:36:23;29.77;;;23.10;;
16593;SDS011;8410;52.532;13.336;2022-12-07T05:38:50;26.40;;;22.07;;
16593;SDS011;8410;52.532;13.336;2022-12-07T05:41:18;27.63;;;22.13;;
16593;SDS011;8410;52.532;13.336;2022-12-07T05:44:04;25.50;;;19.97;;
16593;SDS011;8410;52.532;13.336;2022-12-07T05:46:32;25.33;;;20.37;;
16593;SDS011;8410;52.532;13.336;2022-12-07T05:49:00;28.67;;;22.27;;
16593;SDS011;8410;52.532;13.336;2022-12-07T05:51:28;28.57;;;23.63;;
16593;SDS011;8410;52.532;13.336;2022-12-07T05:53:56;28.47;;;22.63;;
16593;SDS011;8410;52.532;13.336;2022-12-07T05:56:23;28.57;;;22.97;;
16593;SDS011;8410;52.532;13.336;2022-12-07T05:58:52;24.80;;;20.33;;
16593;SDS011;8410;52.532;13.336;2022-12-07T06:01:39;26.77;;;21.17;;
16593;SDS011;8410;52.532;13.336;2022-12-07T06:04:07;28.10;;;22.40;;
16593;SDS011;8410;52.532;13.336;2022-12-07T06:06:35;28.33;;;21.87;;
16593;SDS011;8410;52.532;13.336;2022-12-07T06:09:02;28.10;;;21.20;;
16593;SDS011;8410;52.532;13.336;2022-12-07T06:11:30;29.23;;;23.27;;
16593;SDS011;8410;52.532;13.336;2022-12-07T06:14:15;29.30;;;22.73;;
16593;SDS011;8410;52.532;13.336;2022-12-07T06:16:44;29.10;;;22.27;;
16593;SDS011;8410;52.532;13.336;2022-12-07T06:19:11;29.60;;;23.73;;
16593;SDS011;8410;52.532;13.336;2022-12-07T06:21:39;30.00;;;22.60;;
16593;SDS011;8410;52.532;13.336;2022-12-07T06:24:07;26.17;;;20.97;;
16593;SDS011;8410;52.532;13.336;2022-12-07T06:26:37;29.40;;;23.03;;
16593;SDS011;8410;52.532;13.336;2022-12-07T06:29:05;26.90;;;20.50;;
16593;SDS011;8410;52.532;13.336;2022-12-07T06:31:33;26.60;;;20.87;;
16593;SDS011;8410;52.532;13.336;2022-12-07T06:34:04;24.23;;;20.00;;
16593;SDS011;8410;52.532;13.336;2022-12-07T06:36:33;23.33;;;20.60;;
16593;SDS011;8410;52.532;13.336;2022-12-07T06:39:00;25.47;;;20.73;;
16593;SDS011;8410;52.532;13.336;2022-12-07T06:41:29;27.93;;;20.93;;
16593;SDS011;8410;52.532;13.336;2022-12-07T06:43:57;28.00;;;22.00;;
16593;SDS011;8410;52.532;13.336;2022-12-07T06:46:24;29.33;;;22.13;;
16593;SDS011;8410;52.532;13.336;2022-12-07T06:48:52;25.83;;;21.60;;
16593;SDS011;8410;52.532;13.336;2022-12-07T06:51:21;27.93;;;21.13;;
16593;SDS011;8410;52.532;13.336;2022-12-07T06:53:48;25.33;;;21.00;;
16593;SDS011;8410;52.532;13.336;2022-12-07T06:56:16;26.47;;;21.17;;
16593;SDS011;8410;52.532;13.336;2022-12-07T06:58:44;28.20;;;21.53;;
16593;SDS011;8410;52.532;13.336;2022-12-07T07:01:12;26.13;;;22.47;;
16593;SDS011;8410;52.532;13.336;2022-12-07T07:03:41;30.47;;;21.67;;
16593;SDS011;8410;52.532;13.336;2022-12-07T07:06:09;30.67;;;23.10;;
16593;SDS011;8410;52.532;13.336;2022-12-07T07:08:38;28.50;;;22.10;;
16593;SDS011;8410;52.532;13.336;2022-12-07T07:11:07;28.03;;;23.33;;
16593;SDS011;8410;52.532;13.336;2022-12-07T07:13:35;28.10;;;23.17;;
16593;SDS011;8410;52.532;13.336;2022-12-07T07:16:03;27.30;;;20.60;;
16593;SDS011;8410;52.532;13.336;2022-12-07T07:18:31;28.03;;;21.83;;
16593;SDS011;8410;52.532;13.336;2022-12-07T07:20:59;27.13;;;19.83;;
16593;SDS011;8410;52.532;13.336;2022-12-07T07:23:27;28.63;;;22.07;;
16593;SDS011;8410;52.532;13.336;2022-12-07T07:25:56;29.77;;;22.50;;
16593;SDS011;8410;52.532;13.336;2022-12-07T07:28:23;27.80;;;21.33;;
16593;SDS011;8410;52.532;13.336;2022-12-07T07:30:51;27.53;;;20.47;;
16593;SDS011;8410;52.532;13.336;2022-12-07T07:33:18;26.13;;;21.30;;
16593;SDS011;8410;52.532;13.336;2022-12-07T07:35:46;25.60;;;20.83;;
16593;SDS011;8410;52.532;13.336;2022-12-07T07:38:13;24.53;;;18.33;;
16593;SDS011;8410;52.532;13.336;2022-12-07T07:40:41;25.67;;;19.73;;
16593;SDS011;8410;52.532;13.336;2022-12-07T07:43:10;21.80;;;17.50;;
16593;SDS011;8410;52.532;13.336;2022-12-07T07:45:37;20.30;;;17.10;;
16593;SDS011;8410;52.532;13.336;2022-12-07T07:48:05;23.47;;;18.30;;
16593;SDS011;8410;52.532;13.336;2022-12-07T07:50:33;21.50;;;17.40;;
16593;SDS011;8410;52.532;13.336;2022-12-07T07:53:00;19.53;;;15.97;;
16593;SDS011;8410;52.532;13.336;2022-12-07T07:55:27;19.77;;;16.47;;
16593;SDS011;8410;52.532;13.336;2022-12-07T07:57:55;20.97;;;14.73;;
16593;SDS011;8410;52.532;13.336;2022-12-07T08:00:24;15.33;;;13.33;;
16593;SDS011;8410;52.532;13.336;2022-12-07T08:02:51;22.00;;;15.00;;
16593;SDS011;8410;52.532;13.336;2022-12-07T08:05:19;14.97;;;11.10;;
16593;SDS011;8410;52.532;13.336;2022-12-07T08:07:46;14.63;;;12.30;;
16593;SDS011;8410;52.532;13.336;2022-12-07T08:10:14;16.77;;;12.13;;
16593;SDS011;8410;52.532;13.336;2022-12-07T08:12:42;13.20;;;10.43;;
16593;SDS011;8410;52.532;13.336;2022-12-07T08:15:26;11.83;;;10.07;;
16593;SDS011;8410;52.532;13.336;2022-12-07T08:17:55;13.20;;;10.70;;
16593;SDS011;8410;52.532;13.336;2022-12-07T08:20:22;12.47;;;9.47;;
16593;SDS011;8410;52.532;13.336;2022-12-07T08:22:50;14.00;;;9.17;;
16593;SDS011;8410;52.532;13.336;2022-12-07T08:25:17;10.03;;;8.00;;
16593;SDS011;8410;52.532;13.336;2022-12-07T08:27:45;11.50;;;8.60;;
16593;SDS011;8410;52.532;13.336;2022-12-07T08:30:12;9.93;;;7.70;;
16593;SDS011;8410;52.532;13.336;2022-12-07T08:32:41;9.07;;;7.00;;
16593;SDS011;8410;52.532;13.336;2022-12-07T08:35:11;7.03;;;6.10;;
16593;SDS011;8410;52.532;13.336;2022-12-07T08:37:39;6.97;;;6.27;;
16593;SDS011;8410;52.532;13.336;2022-12-07T08:40:07;8.57;;;6.40;;
16593;SDS011;8410;52.532;13.336;2022-12-07T08:42:36;7.23;;;5.10;;
16593;SDS011;8410;52.532;13.336;2022-12-07T08:45:07;5.43;;;4.60;;
16593;SDS011;8410;52.532;13.336;2022-12-07T08:47:36;4.97;;;4.47;;
16593;SDS011;8410;52.532;13.336;2022-12-07T08:50:07;8.40;;;4.20;;
16593;SDS011;8410;52.532;13.336;2022-12-07T08:52:37;4.37;;;3.80;;
16593;SDS011;8410;52.532;13.336;2022-12-07T08:55:08;4.17;;;3.70;;
16593;SDS011;8410;52.532;13.336;2022-12-07T08:57:37;4.80;;;3.43;;
16593;SDS011;8410;52.532;13.336;2022-12-07T09:00:06;3.57;;;3.20;;
16593;SDS011;8410;52.532;13.336;2022-12-07T09:02:35;3.30;;;3.00;;
16593;SDS011;8410;52.532;13.336;2022-12-07T09:05:03;3.27;;;2.67;;
16593;SDS011;8410;52.532;13.336;2022-12-07T09:07:32;3.50;;;2.90;;
16593;SDS011;8410;52.532;13.336;2022-12-07T09:10:01;2.43;;;2.23;;
16593;SDS011;8410;52.532;13.336;2022-12-07T09:12:30;3.27;;;2.37;;
16593;SDS011;8410;52.532;13.336;2022-12-07T09:14:58;2.87;;;2.50;;
16593;SDS011;8410;52.532;13.336;2022-12-07T09:17:26;2.63;;;2.30;;
16593;SDS011;8410;52.532;13.336;2022-12-07T09:19:54;1.90;;;1.80;;
16593;SDS011;8410;52.532;13.336;2022-12-07T09:22:21;2.77;;;2.57;;
16593;SDS011;8410;52.532;13.336;2022-12-07T09:24:50;2.70;;;2.50;;
16593;SDS011;8410;52.532;13.336;2022-12-07T09:27:17;3.67;;;2.83;;
16593;SDS011;8410;52.532;13.336;2022-12-07T09:29:45;2.70;;;2.50;;
16593;SDS011;8410;52.532;13.336;2022-12-07T09:32:12;4.17;;;2.77;;
16593;SDS011;8410;52.532;13.336;2022-12-07T09:34:40;2.73;;;2.50;;
16593;SDS011;8410;52.532;13.336;2022-12-07T09:37:08;2.90;;;2.60;;
16593;SDS011;8410;52.532;13.336;2022-12-07T09:39:37;3.00;;;2.60;;
16593;SDS011;8410;52.532;13.336;2022-12-07T09:42:18;3.27;;;2.70;;
16593;SDS011;8410;52.532;13.336;2022-12-07T09:44:54;2.50;;;2.30;;
16593;SDS011;8410;52.532;13.336;2022-12-07T09:47:21;2.67;;;2.47;;
16593;SDS011;8410;52.532;13.336;2022-12-07T09:49:49;2.33;;;2.13;;
16593;SDS011;8410;52.532;13.336;2022-12-07T09:52:18;1.70;;;1.60;;
16593;SDS011;8410;52.532;13.336;2022-12-07T09:54:49;2.33;;;1.80;;
16593;SDS011;8410;52.532;13.336;2022-12-07T09:57:19;2.53;;;2.03;;
16593;SDS011;8410;52.532;13.336;2022-12-07T09:59:56;2.20;;;1.83;;
16593;SDS011;8410;52.532;13.336;2022-12-07T10:02:32;2.43;;;1.93;;
16593;SDS011;8410;52.532;13.336;2022-12-07T10:05:03;2.83;;;2.17;;
16593;SDS011;8410;52.532;13.336;2022-12-07T10:07:32;2.30;;;2.10;;
16593;SDS011;8410;52.532;13.336;2022-12-07T10:10:02;2.17;;;1.97;;
16593;SDS011;8410;52.532;13.336;2022-12-07T10:12:32;2.57;;;1.97;;
16593;SDS011;8410;52.532;13.336;2022-12-07T10:15:20;3.43;;;2.10;;
16593;SDS011;8410;52.532;13.336;2022-12-07T10:17:48;2.40;;;2.20;;
16593;SDS011;8410;52.532;13.336;2022-12-07T10:20:19;3.43;;;2.17;;
16593;SDS011;8410;52.532;13.336;2022-12-07T10:22:54;7.70;;;2.57;;
16593;SDS011;8410;52.532;13.336;2022-12-07T10:25:28;2.70;;;2.50;;
16593;SDS011;8410;52.532;13.336;2022-12-07T10:28:10;2.73;;;2.30;;
16593;SDS011;8410;52.532;13.336;2022-12-07T10:30:49;2.47;;;2.27;;
16593;SDS011;8410;52.532;13.336;2022-12-07T10:33:27;4.33;;;2.90;;
16593;SDS011;8410;52.532;13.336;2022-12-07T10:36:00;5.00;;;3.10;;
16593;SDS011;8410;52.532;13.336;2022-12-07T10:38:43;3.30;;;3.00;;
16593;SDS011;8410;52.532;13.336;2022-12-07T10:41:12;2.50;;;2.30;;
16593;SDS011;8410;52.532;13.336;2022-12-07T10:43:47;5.93;;;3.43;;
16593;SDS011;8410;52.532;13.336;2022-12-07T10:46:33;3.00;;;2.70;;
16593;SDS011;8410;52.532;13.336;2022-12-07T10:49:19;4.73;;;4.00;;
16593;SDS011;8410;52.532;13.336;2022-12-07T10:52:04;3.67;;;3.37;;
16593;SDS011;8410;52.532;13.336;2022-12-07T10:54:39;3.90;;;3.60;;
16593;SDS011;8410;52.532;13.336;2022-12-07T10:57:24;4.60;;;4.20;;
16593;SDS011;8410;52.532;13.336;2022-12-07T11:00:10;4.20;;;3.80;;
16593;SDS011;8410;52.532;13.336;2022-12-07T11:02:52;3.93;;;3.60;;
16593;SDS011;8410;52.532;13.336;2022-12-07T11:05:32;5.33;;;3.30;;
16593;SDS011;8410;52.532;13.336;2022-12-07T11:08:09;5.17;;;3.97;;
16593;SDS011;8410;52.532;13.336;2022-12-07T11:10:48;4.53;;;4.10;;
16593;SDS011;8410;52.532;13.336;2022-12-07T11:13:23;5.37;;;4.20;;
16593;SDS011;8410;52.532;13.336;2022-12-07T11:16:02;4.23;;;3.83;;
16593;SDS011;8410;52.532;13.336;2022-12-07T11:18:41;5.87;;;3.30;;
16593;SDS011;8410;52.532;13.336;2022-12-07T11:21:19;7.80;;;3.57;;
16593;SDS011;8410;52.532;13.336;2022-12-07T11:23:53;4.97;;;3.80;;
16593;SDS011;8410;52.532;13.336;2022-12-07T11:26:31;3.90;;;3.60;;
16593;SDS011;8410;52.532;13.336;2022-12-07T11:29:13;4.47;;;4.17;;
16593;SDS011;8410;52.532;13.336;2022-12-07T11:31:55;4.60;;;4.20;;
16593;SDS011;8410;52.532;13.336;2022-12-07T11:34:30;7.17;;;3.93;;
16593;SDS011;8410;52.532;13.336;2022-12-07T11:37:07;4.07;;;3.67;;
16593;SDS011;8410;52.532;13.336;2022-12-07T11:39:41;4.30;;;4.00;;
16593;SDS011;8410;52.532;13.336;2022-12-07T11:42:16;10.27;;;4.80;;
16593;SDS011;8410;52.532;13.336;2022-12-07T11:44:50;6.03;;;4.80;;
16593;SDS011;8410;52.532;13.336;2022-12-07T11:47:25;7.90;;;4.80;;
16593;SDS011;8410;52.532;13.336;2022-12-07T11:49:58;6.90;;;4.80;;
16593;SDS011;8410;52.532;13.336;2022-12-07T11:52:36;6.20;;;4.60;;
16593;SDS011;8410;52.532;13.336;2022-12-07T11:55:14;4.83;;;4.00;;
16593;SDS011;8410;52.532;13.336;2022-12-07T11:57:48;5.67;;;3.90;;
16593;SDS011;8410;52.532;13.336;2022-12-07T12:00:20;6.47;;;4.43;;
16593;SDS011;8410;52.532;13.336;2022-12-07T12:02:51;4.80;;;3.80;;
16593;SDS011;8410;52.532;13.336;2022-12-07T12:05:24;6.30;;;4.00;;
16593;SDS011;8410;52.532;13.336;2022-12-07T12:08:20;5.63;;;3.53;;
16593;SDS011;8410;52.532;13.336;2022-12-07T12:15:53;7.73;;;4.63;;
16593;SDS011;8410;52.532;13.336;2022-12-07T12:22:35;11.27;;;4.83;;
16593;SDS011;8410;52.532;13.336;2022-12-07T12:26:41;7.53;;;4.20;;
16593;SDS011;8410;52.532;13.336;2022-12-07T12:33:33;6.13;;;3.23;;
16593;SDS011;8410;52.532;13.336;2022-12-07T12:37:03;14.63;;;4.33;;
16593;SDS011;8410;52.532;13.336;2022-12-07T12:49:36;7.03;;;3.23;;
16593;SDS011;8410;52.532;13.336;2022-12-07T12:59:25;7.80;;;3.00;;
16593;SDS011;8410;52.532;13.336;2022-12-07T13:02:10;5.77;;;3.00;;
16593;SDS011;8410;52.532;13.336;2022-12-07T13:05:00;10.60;;;3.60;;
16593;SDS011;8410;52.532;13.336;2022-12-07T13:08:01;6.23;;;2.67;;
16593;SDS011;8410;52.532;13.336;2022-12-07T13:10:46;8.33;;;2.73;;
16593;SDS011;8410;52.532;13.336;2022-12-07T13:16:46;11.23;;;3.80;;
16593;SDS011;8410;52.532;13.336;2022-12-07T13:22:56;8.07;;;3.20;;
16593;SDS011;8410;52.532;13.336;2022-12-07T13:25:52;5.97;;;2.50;;
16593;SDS011;8410;52.532;13.336;2022-12-07T13:28:43;4.17;;;2.27;;
16593;SDS011;8410;52.532;13.336;2022-12-07T13:31:19;12.80;;;3.20;;
16593;SDS011;8410;52.532;13.336;2022-12-07T13:34:29;6.17;;;2.57;;
16593;SDS011;8410;52.532;13.336;2022-12-07T13:37:10;7.67;;;2.93;;
16593;SDS011;8410;52.532;13.336;2022-12-07T13:39:58;6.23;;;2.67;;
16593;SDS011;8410;52.532;13.336;2022-12-07T13:42:44;5.73;;;2.67;;
16593;SDS011;8410;52.532;13.336;2022-12-07T13:45:33;4.37;;;2.23;;
16593;SDS011;8410;52.532;13.336;2022-12-07T13:48:28;4.83;;;2.33;;
16593;SDS011;8410;52.532;13.336;2022-12-07T13:51:17;5.50;;;2.70;;
16593;SDS011;8410;52.532;13.336;2022-12-07T13:54:18;5.60;;;2.90;;
16593;SDS011;8410;52.532;13.336;2022-12-07T13:57:06;3.03;;;2.13;;
16593;SDS011;8410;52.532;13.336;2022-12-07T13:59:50;4.20;;;2.30;;
16593;SDS011;8410;52.532;13.336;2022-12-07T14:02:33;5.80;;;3.00;;
16593;SDS011;8410;52.532;13.336;2022-12-07T14:05:14;6.53;;;2.87;;
16593;SDS011;8410;52.532;13.336;2022-12-07T14:07:54;4.80;;;3.30;;
16593;SDS011;8410;52.532;13.336;2022-12-07T14:10:55;7.93;;;2.70;;
16593;SDS011;8410;52.532;13.336;2022-12-07T14:13:31;4.90;;;2.60;;
16593;SDS011;8410;52.532;13.336;2022-12-07T14:16:01;4.00;;;2.00;;
16593;SDS011;8410;52.532;13.336;2022-12-07T14:18:36;5.50;;;3.07;;
16593;SDS011;8410;52.532;13.336;2022-12-07T14:21:05;4.30;;;2.90;;
16593;SDS011;8410;52.532;13.336;2022-12-07T14:23:41;3.97;;;2.43;;
16593;SDS011;8410;52.532;13.336;2022-12-07T14:26:10;6.27;;;3.20;;
16593;SDS011;8410;52.532;13.336;2022-12-07T14:28:40;5.33;;;2.90;;
16593;SDS011;8410;52.532;13.336;2022-12-07T14:31:10;5.90;;;2.47;;
16593;SDS011;8410;52.532;13.336;2022-12-07T14:33:51;6.73;;;2.60;;
16593;SDS011;8410;52.532;13.336;2022-12-07T14:36:19;6.67;;;2.60;;
16593;SDS011;8410;52.532;13.336;2022-12-07T14:38:46;5.23;;;2.53;;
16593;SDS011;8410;52.532;13.336;2022-12-07T14:41:14;5.47;;;2.70;;
16593;SDS011;8410;52.532;13.336;2022-12-07T14:44:02;3.23;;;2.40;;
16593;SDS011;8410;52.532;13.336;2022-12-07T14:46:50;7.10;;;2.60;;
16593;SDS011;8410;52.532;13.336;2022-12-07T14:49:39;5.40;;;3.40;;
16593;SDS011;8410;52.532;13.336;2022-12-07T14:52:09;7.07;;;2.50;;
16593;SDS011;8410;52.532;13.336;2022-12-07T14:55:03;3.50;;;2.30;;
16593;SDS011;8410;52.532;13.336;2022-12-07T14:57:31;5.90;;;2.33;;
16593;SDS011;8410;52.532;13.336;2022-12-07T14:59:59;5.80;;;2.50;;
16593;SDS011;8410;52.532;13.336;2022-12-07T15:02:26;4.63;;;2.43;;
16593;SDS011;8410;52.532;13.336;2022-12-07T15:04:55;7.90;;;2.33;;
16593;SDS011;8410;52.532;13.336;2022-12-07T15:07:22;7.30;;;2.90;;
16593;SDS011;8410;52.532;13.336;2022-12-07T15:09:51;6.17;;;2.70;;
16593;SDS011;8410;52.532;13.336;2022-12-07T15:12:18;10.23;;;2.97;;
16593;SDS011;8410;52.532;13.336;2022-12-07T15:14:46;6.03;;;3.00;;
16593;SDS011;8410;52.532;13.336;2022-12-07T15:17:13;5.43;;;3.00;;
16593;SDS011;8410;52.532;13.336;2022-12-07T15:19:58;5.47;;;2.67;;
16593;SDS011;8410;52.532;13.336;2022-12-07T15:22:25;8.97;;;4.10;;
16593;SDS011;8410;52.532;13.336;2022-12-07T15:24:52;8.97;;;4.90;;
16593;SDS011;8410;52.532;13.336;2022-12-07T15:27:20;7.37;;;2.77;;
16593;SDS011;8410;52.532;13.336;2022-12-07T15:29:47;6.93;;;2.97;;
16593;SDS011;8410;52.532;13.336;2022-12-07T15:32:15;8.03;;;2.50;;
16593;SDS011;8410;52.532;13.336;2022-12-07T15:34:42;5.73;;;2.67;;
16593;SDS011;8410;52.532;13.336;2022-12-07T15:37:11;8.53;;;4.43;;
16593;SDS011;8410;52.532;13.336;2022-12-07T15:39:39;10.70;;;3.73;;
16593;SDS011;8410;52.532;13.336;2022-12-07T15:42:06;6.17;;;2.40;;
16593;SDS011;8410;52.532;13.336;2022-12-07T15:44:34;7.50;;;2.23;;
16593;SDS011;8410;52.532;13.336;2022-12-07T15:47:18;7.77;;;3.07;;
16593;SDS011;8410;52.532;13.336;2022-12-07T15:49:46;8.30;;;2.63;;
16593;SDS011;8410;52.532;13.336;2022-12-07T15:52:16;9.53;;;3.80;;
16593;SDS011;8410;52.532;13.336;2022-12-07T15:54:45;6.23;;;2.17;;
16593;SDS011;8410;52.532;13.336;2022-12-07T15:57:13;7.40;;;2.40;;
16593;SDS011;8410;52.532;13.336;2022-12-07T15:59:47;5.93;;;2.70;;